Time;durP1;ratioP1;P1;durP2;ratioP2;P2;SDS_P1;SDS_P2;PMS_P1;PMS_P2;Temp;Humidity;BMP_temperature;BMP_pressure;BME280_temperature;BME280_humidity;BME280_pressure;Samples;Min_cycle;Max_cycle;Signal;HPM_P1;HPM_P2
2021/06/19 00:02:10;;;;;;;23.73;21.77;;;;;;;19.69;68.47;98521.16;5058058;28;20103;-84
2021/06/19 00:04:35;;;;;;;25.43;23.40;;;;;;;19.67;68.23;98517.81;5056982;28;20106;-84
2021/06/19 00:07:04;;;;;;;23.20;21.50;;;;;;;19.70;68.01;98525.44;5057584;28;20056;-84
2021/06/19 00:09:29;;;;;;;35.43;32.43;;;;;;;19.65;68.59;98517.06;5058001;28;20033;-84
2021/06/19 00:11:55;;;;;;;24.30;22.43;;;;;;;19.63;68.46;98516.34;5059227;28;20043;-84
2021/06/19 00:14:21;;;;;;;25.43;23.50;;;;;;;19.66;68.47;98518.75;5043430;28;20417;-84
2021/06/19 00:16:47;;;;;;;33.73;31.07;;;;;;;19.63;68.71;98518.94;5042798;28;20039;-84
2021/06/19 00:19:13;;;;;;;28.97;26.70;;;;;;;19.57;68.88;98519.28;5056248;28;20124;-84
2021/06/19 00:21:41;;;;;;;27.00;24.87;;;;;;;19.50;69.20;98507.56;5059550;28;20039;-84
2021/06/19 00:24:12;;;;;;;23.30;21.50;;;;;;;19.46;69.48;98508.66;5058285;28;20040;-85
2021/06/19 00:26:38;;;;;;;24.57;22.60;;;;;;;19.51;68.97;98517.03;5036457;28;20028;-84
2021/06/19 00:29:03;;;;;;;33.03;30.37;;;;;;;19.46;69.45;98511.25;5055242;28;20083;-84
2021/06/19 00:31:30;;;;;;;25.23;23.13;;;;;;;19.39;69.55;98507.31;5046791;28;20375;-84
2021/06/19 00:33:56;;;;;;;28.43;26.13;;;;;;;19.31;70.00;98510.31;5057493;28;20033;-84
2021/06/19 00:36:21;;;;;;;38.77;35.40;;;;;;;19.26;69.97;98508.91;5038009;28;20370;-84
2021/06/19 00:38:47;;;;;;;26.00;23.87;;;;;;;19.27;69.83;98516.59;5056201;28;20055;-84
2021/06/19 00:41:12;;;;;;;30.73;28.10;;;;;;;19.22;70.30;98521.25;5056336;28;20041;-84
2021/06/19 00:43:38;;;;;;;37.07;33.90;;;;;;;19.20;70.45;98517.88;5055875;28;20044;-83
2021/06/19 00:46:03;;;;;;;28.40;26.07;;;;;;;19.17;70.75;98516.31;5055173;28;20459;-85
2021/06/19 00:48:28;;;;;;;29.77;27.27;;;;;;;19.13;70.32;98511.34;5054651;28;20040;-84
2021/06/19 00:50:54;;;;;;;25.03;23.00;;;;;;;19.11;70.52;98506.22;5055861;28;20040;-84
2021/06/19 00:53:19;;;;;;;30.37;27.87;;;;;;;19.07;70.74;98509.94;5042268;28;20025;-84
2021/06/19 00:55:45;;;;;;;24.83;22.87;;;;;;;18.99;70.98;98511.25;5058153;28;20040;-84
2021/06/19 00:58:12;;;;;;;31.73;28.97;;;;;;;19.02;71.34;98511.94;5041635;28;20025;-84
2021/06/19 01:00:37;;;;;;;24.27;22.40;;;;;;;18.99;71.52;98511.25;5038379;28;20071;-83
2021/06/19 01:03:03;;;;;;;27.33;25.20;;;;;;;18.96;71.75;98501.91;5052502;28;20032;-84
2021/06/19 01:05:31;;;;;;;26.07;24.00;;;;;;;18.96;71.82;98501.91;5042450;28;20067;-84
2021/06/19 01:07:58;;;;;;;28.80;26.50;;;;;;;18.94;71.63;98503.72;5056553;28;20053;-84
2021/06/19 01:10:24;;;;;;;26.77;24.70;;;;;;;18.93;71.94;98496.84;5036342;28;20040;-84
2021/06/19 01:12:50;;;;;;;31.77;29.13;;;;;;;18.89;71.76;98499.69;5056250;28;20098;-84
2021/06/19 01:15:16;;;;;;;24.37;22.47;;;;;;;18.85;71.90;98501.63;5042343;28;20021;-84
2021/06/19 01:17:42;;;;;;;23.83;22.00;;;;;;;18.82;72.19;98500.94;5057265;28;20037;-84
2021/06/19 01:20:15;;;;;;;26.23;24.13;;;;;;;18.76;72.43;98496.91;5059555;28;20382;-84
2021/06/19 01:22:45;;;;;;;26.80;24.67;;;;;;;18.74;72.43;98492.75;5042960;28;20083;-83
2021/06/19 01:25:17;;;;;;;27.40;25.03;;;;;;;18.74;72.38;98495.34;5055838;28;20052;-85
2021/06/19 01:27:42;;;;;;;26.63;24.37;;;;;;;18.73;71.96;98486.72;5054726;28;20028;-84
2021/06/19 01:30:10;;;;;;;29.57;27.20;;;;;;;18.73;72.49;98491.06;5039169;28;20048;-84
2021/06/19 01:32:38;;;;;;;34.00;31.20;;;;;;;18.71;72.59;98496.34;5055276;28;20029;-84
2021/06/19 01:35:05;;;;;;;34.73;31.70;;;;;;;18.73;71.91;98496.25;5028537;28;20255;-84
2021/06/19 01:37:31;;;;;;;32.47;29.67;;;;;;;18.65;71.81;98483.69;5039123;28;20131;-84
2021/06/19 01:40:07;;;;;;;25.33;23.23;;;;;;;18.67;71.92;98480.06;5042503;28;20024;-83
2021/06/19 01:42:33;;;;;;;29.77;27.33;;;;;;;18.65;73.19;98491.47;5035967;28;20037;-84
2021/06/19 01:44:59;;;;;;;27.37;25.23;;;;;;;18.64;73.62;98484.59;5052939;28;20063;-83
2021/06/19 01:47:27;;;;;;;32.80;30.23;;;;;;;18.58;73.58;98482.34;5051895;28;20044;-84
2021/06/19 01:49:52;;;;;;;32.00;29.37;;;;;;;18.53;73.72;98482.59;5051987;28;20257;-84
2021/06/19 01:52:19;;;;;;;34.93;32.07;;;;;;;18.47;73.19;98474.25;5055982;28;20834;-84
2021/06/19 01:54:44;;;;;;;27.27;25.10;;;;;;;18.46;72.91;98477.78;5053265;28;20088;-84
2021/06/19 01:57:10;;;;;;;26.73;24.77;;;;;;;18.50;72.29;98476.69;5054322;28;20116;-84
2021/06/19 01:59:35;;;;;;;33.03;30.27;;;;;;;18.43;72.56;98464.94;5053982;28;20111;-84
2021/06/19 02:02:03;;;;;;;31.53;28.87;;;;;;;18.48;73.51;98475.94;5053718;28;20731;-83
2021/06/19 02:04:28;;;;;;;26.37;24.33;;;;;;;18.49;72.86;98480.22;5054733;28;20029;-84
2021/06/19 02:06:54;;;;;;;27.90;25.73;;;;;;;18.47;72.85;98476.84;5039771;28;20592;-84
2021/06/19 02:09:20;;;;;;;29.50;27.27;;;;;;;18.43;72.49;98472.72;5040228;28;20044;-84
2021/06/19 02:11:46;;;;;;;27.37;25.20;;;;;;;18.42;72.97;98474.50;5038659;28;20028;-84
2021/06/19 02:14:13;;;;;;;34.57;31.77;;;;;;;18.39;73.69;98479.00;5041979;28;20591;-84
2021/06/19 02:16:39;;;;;;;25.80;23.77;;;;;;;18.36;74.73;98482.63;5054413;28;20063;-84
2021/06/19 02:19:05;;;;;;;31.90;29.43;;;;;;;18.35;74.90;98490.47;5052680;28;20390;-84
2021/06/19 02:21:30;;;;;;;26.57;24.50;;;;;;;18.32;75.27;98490.66;5054112;28;20365;-83
2021/06/19 02:23:56;;;;;;;24.97;23.07;;;;;;;18.26;75.36;98484.00;5055300;28;20709;-84
2021/06/19 02:26:21;;;;;;;26.83;24.50;;;;;;;18.21;75.19;98486.00;5054276;28;20025;-84
2021/06/19 02:28:47;;;;;;;30.83;28.23;;;;;;;18.21;75.40;98488.59;5053274;28;20627;-84
2021/06/19 02:31:12;;;;;;;25.53;23.60;;;;;;;18.17;75.26;98490.50;5059183;28;20064;-84
2021/06/19 02:33:38;;;;;;;22.13;20.50;;;;;;;18.11;74.76;98482.22;5041445;28;20119;-84
2021/06/19 02:36:04;;;;;;;26.53;24.47;;;;;;;18.15;75.69;98486.34;5055763;28;20063;-84
2021/06/19 02:38:29;;;;;;;31.27;28.70;;;;;;;18.12;76.12;98492.50;5052151;28;20091;-83
2021/06/19 02:40:55;;;;;;;25.40;23.43;;;;;;;18.09;76.07;98495.25;5048647;28;20037;-85
2021/06/19 02:43:21;;;;;;;25.27;23.10;;;;;;;18.07;75.41;98491.09;5051767;28;20377;-84
2021/06/19 02:45:47;;;;;;;29.80;27.37;;;;;;;18.11;75.30;98503.81;5036071;28;20049;-85
2021/06/19 02:48:13;;;;;;;27.30;24.90;;;;;;;18.06;75.46;98498.03;5049334;28;20386;-84
2021/06/19 02:50:41;;;;;;;22.63;20.70;;;;;;;18.08;75.10;98496.16;5052693;28;20259;-85
2021/06/19 02:53:07;;;;;;;22.17;20.23;;;;;;;18.06;74.84;98503.22;5054724;28;20063;-84
2021/06/19 02:55:35;;;;;;;25.13;22.93;;;;;;;18.12;74.16;98513.25;5052942;28;20390;-84
2021/06/19 02:58:01;;;;;;;26.90;24.90;;;;;;;18.12;73.85;98510.66;5052910;28;20133;-84
2021/06/19 03:00:27;;;;;;;24.03;21.93;;;;;;;18.11;73.95;98508.16;5056417;28;20041;-84
2021/06/19 03:02:53;;;;;;;25.70;23.50;;;;;;;18.08;73.89;98510.91;5055912;28;20557;-84
2021/06/19 03:05:23;;;;;;;27.27;24.90;;;;;;;18.04;74.44;98518.00;5053409;28;20047;-85
2021/06/19 03:07:49;;;;;;;34.50;31.37;;;;;;;18.00;75.58;98521.66;5053004;28;20033;-84
2021/06/19 03:10:17;;;;;;;24.13;22.00;;;;;;;17.97;76.09;98524.44;5034575;28;20369;-85
2021/06/19 03:12:42;;;;;;;22.47;20.50;;;;;;;17.97;76.04;98529.63;5041454;28;20043;-84
2021/06/19 03:15:09;;;;;;;26.37;23.97;;;;;;;17.99;76.22;98527.78;5049771;28;20045;-84
2021/06/19 03:17:35;;;;;;;27.10;24.77;;;;;;;18.00;75.93;98534.66;5051477;28;20032;-83
2021/06/19 03:20:00;;;;;;;33.27;30.33;;;;;;;18.00;75.97;98529.47;5052504;28;20029;-84
2021/06/19 03:22:26;;;;;;;23.53;21.57;;;;;;;18.00;75.53;98526.88;5052872;28;20328;-84
2021/06/19 03:24:51;;;;;;;30.13;27.50;;;;;;;18.01;75.33;98538.94;5053226;28;20111;-84
2021/06/19 03:27:18;;;;;;;25.83;23.57;;;;;;;18.02;75.32;98535.41;5049966;28;20025;-84
2021/06/19 03:29:44;;;;;;;23.57;21.53;;;;;;;18.04;75.36;98538.75;5055014;28;20058;-84
2021/06/19 03:32:10;;;;;;;25.97;23.70;;;;;;;18.04;75.68;98537.91;5053462;28;20119;-83
2021/06/19 03:34:41;;;;;;;28.77;26.23;;;;;;;18.10;75.34;98541.06;5051895;28;20048;-84
2021/06/19 03:37:07;;;;;;;27.60;25.27;;;;;;;18.20;74.84;98541.44;5037771;28;20025;-84
2021/06/19 03:39:34;;;;;;;20.73;19.03;;;;;;;18.30;73.71;98546.97;5054877;28;20467;-84
2021/06/19 03:42:01;;;;;;;42.90;39.07;;;;;;;18.37;72.83;98541.41;5055751;28;20043;-84
2021/06/19 03:44:26;;;;;;;30.33;27.57;;;;;;;18.39;72.66;98538.72;5055585;28;20401;-84
2021/06/19 03:46:52;;;;;;;28.37;25.97;;;;;;;18.40;72.73;98540.41;5037985;28;20052;-84
2021/06/19 03:49:18;;;;;;;25.23;23.07;;;;;;;18.37;73.00;98544.00;5052012;28;20044;-84
2021/06/19 03:51:45;;;;;;;30.43;27.67;;;;;;;18.43;73.43;98542.81;5049471;28;20033;-84
2021/06/19 03:54:11;;;;;;;35.97;32.53;;;;;;;18.53;73.04;98544.06;5019881;28;20544;-84
2021/06/19 03:56:36;;;;;;;27.00;24.67;;;;;;;18.58;72.87;98552.47;5055569;28;20120;-84
2021/06/19 03:59:02;;;;;;;27.63;25.30;;;;;;;18.73;72.76;98559.44;5053542;28;20032;-84
2021/06/19 04:01:27;;;;;;;22.83;20.97;;;;;;;18.83;72.49;98552.84;5051420;28;20390;-84
2021/06/19 04:03:53;;;;;;;27.27;25.03;;;;;;;18.96;71.91;98556.47;5051522;28;20068;-84
2021/06/19 04:06:18;;;;;;;27.67;25.20;;;;;;;19.09;71.91;98564.44;5051852;28;20033;-84
2021/06/19 04:08:43;;;;;;;25.67;23.60;;;;;;;19.23;70.54;98566.25;5052560;28;20123;-84
2021/06/19 04:11:09;;;;;;;24.67;22.73;;;;;;;19.37;70.31;98567.19;5052098;28;20028;-83
2021/06/19 04:13:35;;;;;;;27.73;25.27;;;;;;;19.48;69.70;98564.84;5036346;28;20048;-84
2021/06/19 04:16:00;;;;;;;28.27;25.90;;;;;;;19.64;69.40;98557.03;5051096;28;20048;-83
2021/06/19 04:18:26;;;;;;;29.50;27.00;;;;;;;19.76;69.13;98566.72;5051307;28;20060;-84
2021/06/19 04:20:52;;;;;;;27.73;25.37;;;;;;;19.86;68.76;98562.66;5050430;28;20227;-84
2021/06/19 04:23:17;;;;;;;30.37;27.80;;;;;;;20.03;68.79;98565.13;5025020;28;20040;-84
2021/06/19 04:25:42;;;;;;;30.93;28.30;;;;;;;20.18;68.20;98571.22;5052451;28;20055;-85
2021/06/19 04:28:08;;;;;;;27.63;25.33;;;;;;;20.32;66.51;98568.69;5053045;28;20174;-84
2021/06/19 04:30:35;;;;;;;26.23;24.17;;;;;;;20.50;66.09;98570.16;5051939;28;20028;-85
2021/06/19 04:33:01;;;;;;;25.90;23.90;;;;;;;20.69;65.78;98579.47;5036822;28;20040;-85
2021/06/19 04:35:27;;;;;;;28.17;25.97;;;;;;;20.81;66.19;98576.13;5056043;28;20032;-85
2021/06/19 04:37:53;;;;;;;32.37;29.77;;;;;;;20.96;65.66;98577.81;5049068;28;20388;-85
2021/06/19 04:43:03;;;;;;;26.00;24.07;;;;;;;21.32;64.78;98579.91;5057279;28;20032;-85
2021/06/19 04:45:30;;;;;;;28.30;26.03;;;;;;;21.50;64.56;98578.72;5040359;28;20259;-85
2021/06/19 04:47:56;;;;;;;27.07;24.83;;;;;;;21.62;64.09;98577.94;5039483;28;20043;-84
2021/06/19 04:50:21;;;;;;;44.97;41.10;;;;;;;21.82;62.89;98579.25;5055965;28;20127;-85
2021/06/19 04:52:47;;;;;;;34.67;31.87;;;;;;;22.06;62.48;98580.28;5054411;28;20045;-84
2021/06/19 04:55:15;;;;;;;33.17;30.43;;;;;;;22.19;61.26;98585.53;5053459;28;20040;-84
2021/06/19 04:57:43;;;;;;;33.47;30.83;;;;;;;22.43;60.57;98586.47;5040322;28;20115;-85
2021/06/19 05:00:12;;;;;;;42.13;38.53;;;;;;;22.61;60.37;98582.63;5054456;28;20032;-84
2021/06/19 05:02:38;;;;;;;31.43;29.00;;;;;;;22.74;60.90;98580.03;5052484;28;20321;-85
2021/06/19 05:05:05;;;;;;;38.33;35.10;;;;;;;22.93;59.76;98582.19;5037572;28;20128;-85
2021/06/19 05:07:32;;;;;;;27.03;24.97;;;;;;;23.09;59.27;98580.16;5044485;28;20024;-85
2021/06/19 05:09:58;;;;;;;30.17;27.73;;;;;;;23.34;58.31;98582.72;5055185;28;20029;-85
2021/06/19 05:12:23;;;;;;;29.63;27.17;;;;;;;23.55;57.43;98580.38;5053780;28;20034;-85
2021/06/19 05:14:49;;;;;;;28.03;25.83;;;;;;;23.60;57.92;98580.84;5059002;28;20117;-84
2021/06/19 05:17:14;;;;;;;40.80;37.50;;;;;;;23.51;58.41;98579.75;5055446;28;20033;-83
2021/06/19 05:19:39;;;;;;;29.57;27.17;;;;;;;23.57;58.87;98581.09;5052693;28;20028;-84
2021/06/19 05:22:05;;;;;;;41.83;38.50;;;;;;;23.81;57.13;98586.31;5054210;28;20385;-84
2021/06/19 05:24:30;;;;;;;29.77;27.60;;;;;;;23.82;56.59;98585.38;5040633;28;20028;-83
2021/06/19 05:26:56;;;;;;;39.37;36.20;;;;;;;23.79;57.69;98588.22;5056112;28;20044;-83
2021/06/19 05:29:21;;;;;;;34.03;31.47;;;;;;;23.96;57.28;98588.66;5053030;28;20079;-84
2021/06/19 05:31:47;;;;;;;34.17;31.67;;;;;;;23.88;57.70;98579.69;5054513;28;20033;-84
2021/06/19 05:34:12;;;;;;;42.27;38.90;;;;;;;24.08;57.92;98585.13;5036738;28;20321;-85
2021/06/19 05:36:38;;;;;;;25.47;23.63;;;;;;;23.87;58.94;98586.72;5056679;28;20115;-85
2021/06/19 05:39:04;;;;;;;37.37;34.43;;;;;;;24.16;57.70;98588.97;5055362;28;20025;-85
2021/06/19 05:41:30;;;;;;;24.90;23.13;;;;;;;24.21;58.23;98592.94;5033354;28;20033;-84
2021/06/19 05:43:57;;;;;;;35.13;32.50;;;;;;;24.24;57.31;98584.81;5055463;28;20047;-84
2021/06/19 05:46:23;;;;;;;33.00;30.47;;;;;;;24.19;58.16;98583.53;5055032;28;20045;-85
2021/06/19 05:48:48;;;;;;;43.50;40.30;;;;;;;24.44;56.77;98589.38;5051801;28;20032;-84
2021/06/19 05:51:13;;;;;;;29.43;27.20;;;;;;;24.41;57.08;98588.78;5042771;28;20029;-84
2021/06/19 05:53:39;;;;;;;31.17;28.77;;;;;;;24.58;56.72;98578.69;5055695;28;20040;-84
2021/06/19 05:56:04;;;;;;;28.50;26.23;;;;;;;24.77;55.81;98579.91;5056541;28;20025;-84
2021/06/19 05:58:30;;;;;;;35.47;32.80;;;;;;;24.85;54.99;98591.50;5039022;28;20123;-83
2021/06/19 06:00:55;;;;;;;37.47;34.67;;;;;;;25.02;54.92;98591.03;5053539;28;20025;-82
2021/06/19 06:03:21;;;;;;;47.83;45.00;;;;;;;24.99;55.64;98588.63;5052273;28;20061;-83
2021/06/19 06:05:46;;;;;;;39.13;36.70;;;;;;;25.10;54.73;98592.19;5036823;28;20024;-84
2021/06/19 06:08:12;;;;;;;30.63;28.60;;;;;;;24.86;55.89;98594.97;5037543;28;20039;-84
2021/06/19 06:10:38;;;;;;;34.67;32.23;;;;;;;25.01;55.66;98596.38;5040255;28;20044;-84
2021/06/19 06:13:04;;;;;;;44.47;41.37;;;;;;;25.18;55.47;98597.66;5054279;28;20036;-84
2021/06/19 06:15:30;;;;;;;37.93;35.30;;;;;;;25.25;55.81;98601.50;5053960;28;20032;-84
2021/06/19 06:17:55;;;;;;;30.90;28.80;;;;;;;25.38;54.53;98592.50;5051120;28;20043;-83
2021/06/19 06:20:21;;;;;;;31.37;29.03;;;;;;;25.41;53.97;98592.28;5052684;28;20144;-83
2021/06/19 06:22:47;;;;;;;36.60;33.87;;;;;;;25.57;53.85;98594.53;5052447;28;20051;-83
2021/06/19 06:25:12;;;;;;;35.87;33.20;;;;;;;25.46;53.34;98586.66;5037569;28;20051;-85
2021/06/19 06:27:39;;;;;;;37.07;34.50;;;;;;;25.49;54.16;98599.53;5053139;28;20021;-83
2021/06/19 06:30:05;;;;;;;33.70;31.30;;;;;;;25.65;53.76;98600.00;5053365;28;20316;-85
2021/06/19 06:32:33;;;;;;;38.83;35.87;;;;;;;25.81;52.88;98599.56;5050354;28;20407;-84
2021/06/19 06:34:58;;;;;;;47.57;44.07;;;;;;;25.90;52.35;98606.72;5051049;28;20129;-84
2021/06/19 06:37:24;;;;;;;48.40;44.93;;;;;;;25.72;52.56;98597.69;5052282;28;20374;-84
2021/06/19 06:39:49;;;;;;;425.13;395.80;;;;;;;25.86;53.42;98598.25;5052139;28;20037;-84
2021/06/19 06:42:15;;;;;;;1023.40;956.87;;;;;;;25.91;52.98;98595.25;5052464;28;20033;-84
2021/06/19 06:44:52;;;;;;;1029.23;962.47;;;;;;;26.15;52.11;98595.84;5038355;28;20048;-84
2021/06/19 06:47:17;;;;;;;1031.60;964.63;;;;;;;26.23;51.93;98603.09;5048921;28;20057;-84
2021/06/19 06:49:52;;;;;;;1016.60;950.93;;;;;;;26.25;52.77;98599.41;5051989;28;20037;-87
2021/06/19 06:52:18;;;;;;;1003.73;939.33;;;;;;;26.32;51.24;98611.06;5037808;28;20039;-87
2021/06/19 06:54:44;;;;;;;919.13;859.40;;;;;;;26.26;51.88;98608.13;5054711;28;20373;-88
2021/06/19 06:57:10;;;;;;;706.00;652.20;;;;;;;26.42;51.97;98611.16;5057887;28;20044;-89
2021/06/19 06:59:36;;;;;;;662.93;610.10;;;;;;;26.40;52.23;98620.09;5039686;28;20097;-88
2021/06/19 07:02:02;;;;;;;640.70;588.43;;;;;;;26.05;51.44;98618.59;5037348;28;20309;-87
2021/06/19 07:04:27;;;;;;;441.37;403.80;;;;;;;26.18;51.07;98613.97;5041802;28;20044;-88
2021/06/19 07:06:53;;;;;;;430.17;392.73;;;;;;;26.17;51.39;98611.50;5051052;28;20033;-89
2021/06/19 07:09:18;;;;;;;612.93;560.43;;;;;;;26.27;50.67;98617.66;5052330;28;20048;-87
2021/06/19 07:11:43;;;;;;;615.03;563.13;;;;;;;26.40;51.11;98612.22;5053195;28;20029;-86
2021/06/19 07:14:09;;;;;;;438.33;400.53;;;;;;;26.60;50.98;98604.34;5052045;28;20393;-85
2021/06/19 07:16:35;;;;;;;1012.10;948.27;;;;;;;26.78;50.63;98601.91;5033371;28;20033;-88
2021/06/19 07:19:00;;;;;;;725.57;671.27;;;;;;;26.71;49.96;98609.50;5038204;28;20142;-86
2021/06/19 07:21:26;;;;;;;731.43;676.93;;;;;;;26.96;49.66;98599.53;5036919;28;20040;-85
2021/06/19 07:23:52;;;;;;;725.10;671.13;;;;;;;27.00;49.24;98601.78;5053691;28;20036;-86
2021/06/19 07:26:18;;;;;;;701.50;647.83;;;;;;;27.08;48.92;98604.56;5042794;28;20070;-86
2021/06/19 07:28:45;;;;;;;728.23;673.63;;;;;;;26.95;48.54;98598.69;5051650;28;20295;-87
2021/06/19 07:31:12;;;;;;;719.77;665.90;;;;;;;27.02;48.78;98593.75;5038032;28;20033;-87
2021/06/19 07:33:37;;;;;;;716.23;662.33;;;;;;;27.22;48.69;98596.31;5040429;28;20029;-86
2021/06/19 07:36:03;;;;;;;721.67;668.00;;;;;;;27.23;48.84;98598.00;5054761;28;20382;-87
2021/06/19 07:38:30;;;;;;;722.60;668.63;;;;;;;27.42;48.44;98601.63;5042607;28;20057;-87
2021/06/19 07:40:56;;;;;;;721.43;667.63;;;;;;;27.44;48.60;98595.25;5054603;28;20033;-86
2021/06/19 07:43:22;;;;;;;711.00;656.77;;;;;;;27.61;47.70;98599.06;5040863;28;20280;-87
2021/06/19 07:45:48;;;;;;;715.57;661.17;;;;;;;27.64;46.98;98591.72;5054612;28;20056;-84
2021/06/19 07:48:13;;;;;;;732.73;678.53;;;;;;;27.47;46.79;98592.38;5039277;28;20381;-85
2021/06/19 07:50:40;;;;;;;727.53;673.37;;;;;;;27.53;46.95;98597.13;5056069;28;20425;-85
2021/06/19 07:53:07;;;;;;;729.40;675.27;;;;;;;27.36;47.01;98586.38;5056077;28;20040;-85
2021/06/19 07:55:32;;;;;;;719.27;665.50;;;;;;;27.31;47.65;98593.84;5057475;28;20024;-85
2021/06/19 07:57:59;;;;;;;738.07;683.67;;;;;;;27.37;47.54;98582.78;5058752;28;20032;-85
2021/06/19 08:00:25;;;;;;;726.80;672.40;;;;;;;27.40;47.02;98588.59;5056329;28;20055;-84
2021/06/19 08:02:51;;;;;;;727.57;673.50;;;;;;;27.63;47.26;98594.47;5054652;28;20424;-84
2021/06/19 08:05:16;;;;;;;751.90;697.23;;;;;;;27.75;46.58;98588.13;5050590;28;20056;-85
2021/06/19 08:07:42;;;;;;;741.20;685.60;;;;;;;27.98;46.86;98596.56;5053061;28;20028;-85
2021/06/19 08:10:09;;;;;;;751.73;696.50;;;;;;;27.99;46.18;98585.91;5054392;28;20039;-84
2021/06/19 08:12:35;;;;;;;747.43;692.70;;;;;;;27.51;46.96;98591.13;5057939;28;20095;-84
2021/06/19 08:15:02;;;;;;;741.83;687.50;;;;;;;27.55;46.88;98586.41;5043011;28;20071;-84
2021/06/19 08:17:31;;;;;;;760.63;705.23;;;;;;;27.98;45.80;98586.03;5043453;28;20132;-88
2021/06/19 08:19:56;;;;;;;728.10;674.10;;;;;;;27.79;45.99;98592.16;5052900;28;20033;-86
2021/06/19 08:22:21;;;;;;;748.20;693.20;;;;;;;27.93;46.05;98590.88;5039852;28;20033;-86
2021/06/19 08:24:47;;;;;;;752.37;697.63;;;;;;;28.11;45.78;98591.88;5055931;28;20389;-84
2021/06/19 08:27:13;;;;;;;771.27;715.80;;;;;;;28.27;45.15;98581.59;5039933;28;20017;-83
2021/06/19 08:29:39;;;;;;;761.97;707.10;;;;;;;28.27;45.05;98589.50;5057918;28;20075;-84
2021/06/19 08:32:08;;;;;;;786.97;731.43;;;;;;;28.30;45.07;98593.69;5062603;28;20032;-85
2021/06/19 08:34:34;;;;;;;773.83;718.33;;;;;;;28.57;45.06;98586.66;5050262;28;20033;-84
2021/06/19 08:36:59;;;;;;;783.17;727.70;;;;;;;28.61;45.08;98585.41;5067492;28;20070;-86
2021/06/19 08:39:25;;;;;;;780.97;725.63;;;;;;;28.48;45.16;98586.69;5069315;28;20032;-85
2021/06/19 08:41:54;;;;;;;769.20;714.13;;;;;;;28.52;44.89;98583.63;5052864;28;20364;-85
2021/06/19 08:44:22;;;;;;;785.27;729.57;;;;;;;28.53;45.13;98585.28;5054249;28;20025;-86
2021/06/19 08:46:52;;;;;;;791.60;736.33;;;;;;;28.84;44.55;98585.09;5071201;28;20091;-87
2021/06/19 08:49:19;;;;;;;774.30;718.93;;;;;;;28.80;44.80;98581.06;5068787;28;20052;-88
2021/06/19 08:51:45;;;;;;;791.03;735.73;;;;;;;29.02;44.29;98578.06;5069090;28;20033;-88
2021/06/19 08:54:11;;;;;;;785.33;729.87;;;;;;;29.22;43.47;98581.44;5074604;28;20049;-88
2021/06/19 08:56:36;;;;;;;795.23;739.63;;;;;;;29.41;43.56;98581.31;5065479;28;20547;-88
2021/06/19 08:59:02;;;;;;;793.93;738.40;;;;;;;29.46;44.43;98579.91;5044759;28;20429;-87
2021/06/19 09:01:27;;;;;;;795.03;738.77;;;;;;;29.38;43.54;98586.91;5062158;28;20083;-87
2021/06/19 09:03:53;;;;;;;799.30;743.20;;;;;;;29.63;43.43;98586.19;5059730;28;20063;-87
2021/06/19 09:06:27;;;;;;;803.83;748.03;;;;;;;29.37;42.80;98585.25;5060721;28;20326;-88
2021/06/19 09:09:00;;;;;;;795.70;739.78;;;;;;;29.31;42.80;98586.69;5050802;28;20103;-86
2021/06/19 09:11:33;;;;;;;802.10;745.90;;;;;;;29.37;43.57;98575.53;5051495;28;20044;-87
2021/06/19 09:14:00;;;;;;;822.60;766.50;;;;;;;29.31;44.15;98575.28;5067829;28;20017;-86
2021/06/19 09:16:26;;;;;;;819.77;763.17;;;;;;;29.50;43.01;98580.44;5051762;28;20104;-88
2021/06/19 09:18:52;;;;;;;816.57;760.50;;;;;;;29.71;42.57;98567.75;5062184;28;20053;-86
2021/06/19 09:21:27;;;;;;;817.13;760.87;;;;;;;30.11;42.58;98575.25;5063503;28;20025;-86
2021/06/19 09:23:52;;;;;;;818.37;762.27;;;;;;;30.23;42.96;98578.47;5046022;28;20044;-86
2021/06/19 09:26:21;;;;;;;830.23;773.83;;;;;;;30.51;40.83;98579.22;5065438;28;20024;-86
2021/06/19 09:29:11;;;;;;;844.87;788.27;;;;;;;30.69;40.67;98572.84;5061261;28;20032;-88
2021/06/19 09:31:38;;;;;;;847.90;791.20;;;;;;;30.77;40.43;98575.53;5056930;28;20029;-87
2021/06/19 09:34:14;;;;;;;843.27;786.33;;;;;;;30.85;39.72;98558.91;5043898;28;20267;-88
2021/06/19 09:36:53;;;;;;;858.97;801.50;;;;;;;30.87;39.82;98569.31;5042854;28;20021;-88
2021/06/19 09:39:28;;;;;;;852.30;795.43;;;;;;;30.87;40.13;98569.31;5042339;28;20361;-87
2021/06/19 09:41:58;;;;;;;863.03;805.93;;;;;;;30.98;40.58;98571.69;5057353;28;20029;-88
2021/06/19 09:44:41;;;;;;;867.47;809.87;;;;;;;30.74;41.30;98565.28;5036774;28;20029;-88
2021/06/19 09:47:07;;;;;;;847.53;790.27;;;;;;;30.95;40.47;98567.53;5055213;28;20040;-87
2021/06/19 09:49:39;;;;;;;863.87;806.47;;;;;;;31.10;39.79;98565.16;5057469;28;20025;-88
2021/06/19 09:52:05;;;;;;;853.97;796.83;;;;;;;31.05;39.66;98576.22;5061662;28;20115;-87
2021/06/19 09:54:40;;;;;;;861.33;804.30;;;;;;;30.85;39.67;98572.13;5046161;28;20017;-87
2021/06/19 09:57:11;;;;;;;849.90;793.23;;;;;;;30.24;40.57;98575.69;5043026;28;20040;-87
2021/06/19 09:59:38;;;;;;;858.93;801.33;;;;;;;30.46;40.07;98565.63;5040003;28;20021;-88
2021/06/19 10:02:16;;;;;;;845.83;789.07;;;;;;;30.47;39.81;98565.44;5054334;28;20047;-87
2021/06/19 10:04:42;;;;;;;852.60;795.37;;;;;;;30.46;39.97;98561.16;5055676;28;20066;-84
2021/06/19 10:07:08;;;;;;;835.13;778.57;;;;;;;30.54;39.93;98569.16;5056167;28;20017;-87
2021/06/19 10:09:33;;;;;;;854.73;797.67;;;;;;;30.90;39.62;98556.56;5058239;28;20110;-86
2021/06/19 10:12:01;;;;;;;860.77;803.37;;;;;;;31.14;39.65;98564.66;5042632;28;20017;-84
2021/06/19 10:14:27;;;;;;;851.33;794.33;;;;;;;31.27;39.36;98562.38;5055183;28;20029;-85
2021/06/19 10:16:55;;;;;;;851.80;794.80;;;;;;;31.13;38.76;98556.88;5039314;28;20043;-86
2021/06/19 10:19:23;;;;;;;867.40;810.23;;;;;;;31.41;38.17;98555.63;5054929;28;20060;-83
2021/06/19 10:21:51;;;;;;;871.00;813.50;;;;;;;31.42;37.36;98551.16;5042150;28;20092;-87
2021/06/19 10:24:17;;;;;;;875.00;817.27;;;;;;;31.40;37.93;98553.97;5055818;28;20048;-86
2021/06/19 10:26:43;;;;;;;875.37;817.87;;;;;;;31.19;38.66;98550.94;5041601;28;20017;-87
2021/06/19 10:29:09;;;;;;;875.33;817.60;;;;;;;31.38;38.10;98550.66;5058202;28;20064;-88
2021/06/19 10:31:49;;;;;;;865.40;808.13;;;;;;;31.39;37.68;98552.31;5059933;28;20029;-87
2021/06/19 10:34:50;;;;;;;869.70;812.53;;;;;;;31.37;37.81;98551.63;5055123;28;20025;-88
2021/06/19 10:37:28;;;;;;;885.80;827.27;;;;;;;31.47;37.90;98548.84;5055095;28;20109;-88
2021/06/19 10:39:53;;;;;;;887.67;829.43;;;;;;;31.56;37.28;98542.59;5040699;28;20086;-85
2021/06/19 10:42:22;;;;;;;869.10;811.20;;;;;;;31.43;37.89;98547.50;5039209;28;20033;-86
2021/06/19 10:44:58;;;;;;;878.50;820.53;;;;;;;31.55;37.13;98549.72;5055166;28;20068;-87
2021/06/19 10:47:27;;;;;;;877.23;819.60;;;;;;;31.80;37.23;98545.25;5040055;28;20052;-87
2021/06/19 10:49:54;;;;;;;876.73;819.07;;;;;;;31.27;38.53;98540.38;5027804;28;20037;-87
2021/06/19 10:52:24;;;;;;;876.90;818.07;;;;;;;31.55;37.78;98541.75;5041093;28;20128;-87
2021/06/19 10:55:19;;;;;;;884.60;826.43;;;;;;;31.79;37.42;98537.47;5054806;28;20154;-87
2021/06/19 10:57:47;;;;;;;896.10;837.57;;;;;;;32.16;37.37;98546.63;5033077;28;20037;-86
2021/06/19 11:00:36;;;;;;;889.63;831.43;;;;;;;32.15;36.37;98542.31;5053247;28;20081;-86
2021/06/19 11:03:07;;;;;;;900.27;841.87;;;;;;;32.08;36.55;98541.31;5040183;28;20044;-87
2021/06/19 11:05:41;;;;;;;911.17;852.17;;;;;;;32.34;36.10;98540.28;5039063;28;20064;-86
2021/06/19 11:08:10;;;;;;;897.30;839.20;;;;;;;32.50;35.26;98533.13;5041600;28;20033;-86
2021/06/19 11:10:45;;;;;;;905.20;846.20;;;;;;;32.73;35.32;98530.56;5055168;28;20044;-86
2021/06/19 11:13:29;;;;;;;913.03;854.43;;;;;;;32.88;34.78;98528.03;5041915;28;20032;-86